sensor_id;sensor_type;location;lat;lon;timestamp;pressure;altitude;pressure_sealevel;temperature;humidity
10539;BME280;5317;49.048;8.468;2022-09-29T00:01:03;112049.66;;;-142.21;100.00
10539;BME280;5317;49.048;8.468;2022-09-29T00:03:31;112049.66;;;-142.21;100.00
10539;BME280;5317;49.048;8.468;2022-09-29T00:05:58;112049.66;;;-142.21;100.00
10539;BME280;5317;49.048;8.468;2022-09-29T00:08:28;112049.66;;;-142.21;100.00
10539;BME280;5317;49.048;8.468;2022-09-29T00:10:57;112049.66;;;-142.21;100.00
10539;BME280;5317;49.048;8.468;2022-09-29T00:13:24;112049.66;;;-142.21;100.00
10539;BME280;5317;49.048;8.468;2022-09-29T00:15:57;112049.66;;;-142.21;100.00
10539;BME280;5317;49.048;8.468;2022-09-29T00:18:25;112049.66;;;-142.21;100.00
10539;BME280;5317;49.048;8.468;2022-09-29T00:21:00;112049.66;;;-142.21;100.00
10539;BME280;5317;49.048;8.468;2022-09-29T00:23:29;112049.66;;;-142.21;100.00
10539;BME280;5317;49.048;8.468;2022-09-29T00:26:08;112049.66;;;-142.21;100.00
10539;BME280;5317;49.048;8.468;2022-09-29T00:28:37;112049.66;;;-142.21;100.00
10539;BME280;5317;49.048;8.468;2022-09-29T00:31:06;112049.66;;;-142.21;100.00
10539;BME280;5317;49.048;8.468;2022-09-29T00:33:35;112049.66;;;-142.21;100.00
10539;BME280;5317;49.048;8.468;2022-09-29T00:36:06;112049.66;;;-142.21;100.00
10539;BME280;5317;49.048;8.468;2022-09-29T00:38:34;112049.66;;;-142.21;100.00
10539;BME280;5317;49.048;8.468;2022-09-29T00:41:04;112049.66;;;-142.21;100.00
10539;BME280;5317;49.048;8.468;2022-09-29T00:43:54;112049.66;;;-142.21;100.00
10539;BME280;5317;49.048;8.468;2022-09-29T00:46:38;112049.66;;;-142.21;100.00
10539;BME280;5317;49.048;8.468;2022-09-29T00:49:15;112049.66;;;-142.21;100.00
10539;BME280;5317;49.048;8.468;2022-09-29T00:51:50;112049.66;;;-142.21;100.00
10539;BME280;5317;49.048;8.468;2022-09-29T00:54:19;112049.66;;;-142.21;100.00
10539;BME280;5317;49.048;8.468;2022-09-29T00:56:49;112049.66;;;-142.21;100.00
10539;BME280;5317;49.048;8.468;2022-09-29T00:59:30;112049.66;;;-142.21;100.00
10539;BME280;5317;49.048;8.468;2022-09-29T01:02:01;112049.66;;;-142.21;100.00
10539;BME280;5317;49.048;8.468;2022-09-29T01:04:31;112049.66;;;-142.21;100.00
10539;BME280;5317;49.048;8.468;2022-09-29T01:06:58;112049.66;;;-142.21;100.00
10539;BME280;5317;49.048;8.468;2022-09-29T01:09:30;112049.66;;;-142.21;100.00
10539;BME280;5317;49.048;8.468;2022-09-29T01:12:00;112049.66;;;-142.21;100.00
10539;BME280;5317;49.048;8.468;2022-09-29T01:14:30;112049.66;;;-142.21;100.00
10539;BME280;5317;49.048;8.468;2022-09-29T01:16:58;112049.66;;;-142.21;100.00
10539;BME280;5317;49.048;8.468;2022-09-29T01:19:37;112049.66;;;-142.21;100.00
10539;BME280;5317;49.048;8.468;2022-09-29T01:22:22;112049.66;;;-142.21;100.00
10539;BME280;5317;49.048;8.468;2022-09-29T01:25:10;112049.66;;;-142.21;100.00
10539;BME280;5317;49.048;8.468;2022-09-29T01:31:17;112049.66;;;-142.21;100.00
10539;BME280;5317;49.048;8.468;2022-09-29T01:34:01;112049.66;;;-142.21;100.00
10539;BME280;5317;49.048;8.468;2022-09-29T01:36:44;112049.66;;;-142.21;100.00
10539;BME280;5317;49.048;8.468;2022-09-29T01:39:25;112049.66;;;-142.21;100.00
10539;BME280;5317;49.048;8.468;2022-09-29T01:42:02;112049.66;;;-142.21;100.00
10539;BME280;5317;49.048;8.468;2022-09-29T01:44:36;112049.66;;;-142.21;100.00
10539;BME280;5317;49.048;8.468;2022-09-29T01:47:10;112049.66;;;-142.21;100.00
10539;BME280;5317;49.048;8.468;2022-09-29T01:49:43;112049.66;;;-142.21;100.00
10539;BME280;5317;49.048;8.468;2022-09-29T01:52:16;112049.66;;;-142.21;100.00
10539;BME280;5317;49.048;8.468;2022-09-29T01:54:51;112049.66;;;-142.21;100.00
10539;BME280;5317;49.048;8.468;2022-09-29T01:57:27;112049.66;;;-142.21;100.00
10539;BME280;5317;49.048;8.468;2022-09-29T02:00:02;112049.66;;;-142.21;100.00
10539;BME280;5317;49.048;8.468;2022-09-29T02:02:39;112049.66;;;-142.21;100.00
10539;BME280;5317;49.048;8.468;2022-09-29T02:05:14;112049.66;;;-142.21;100.00
10539;BME280;5317;49.048;8.468;2022-09-29T02:07:46;112049.66;;;-142.21;100.00
10539;BME280;5317;49.048;8.468;2022-09-29T02:10:21;112049.66;;;-142.21;100.00
10539;BME280;5317;49.048;8.468;2022-09-29T02:12:53;112049.66;;;-142.21;100.00
10539;BME280;5317;49.048;8.468;2022-09-29T02:15:25;112049.66;;;-142.21;100.00
10539;BME280;5317;49.048;8.468;2022-09-29T02:18:04;112049.66;;;-142.21;100.00
10539;BME280;5317;49.048;8.468;2022-09-29T02:20:33;112049.66;;;-142.21;100.00
10539;BME280;5317;49.048;8.468;2022-09-29T02:23:00;112049.66;;;-142.21;100.00
10539;BME280;5317;49.048;8.468;2022-09-29T02:25:28;112049.66;;;-142.21;100.00
10539;BME280;5317;49.048;8.468;2022-09-29T02:27:55;112049.66;;;-142.21;100.00
10539;BME280;5317;49.048;8.468;2022-09-29T02:30:22;112049.66;;;-142.21;100.00
10539;BME280;5317;49.048;8.468;2022-09-29T02:32:49;112049.66;;;-142.21;100.00
10539;BME280;5317;49.048;8.468;2022-09-29T02:35:18;112049.66;;;-142.21;100.00
10539;BME280;5317;49.048;8.468;2022-09-29T02:38:03;112049.66;;;-142.21;100.00
10539;BME280;5317;49.048;8.468;2022-09-29T02:40:46;112049.66;;;-142.21;100.00
10539;BME280;5317;49.048;8.468;2022-09-29T02:43:36;112049.66;;;-142.21;100.00
10539;BME280;5317;49.048;8.468;2022-09-29T02:46:24;112049.66;;;-142.21;100.00
10539;BME280;5317;49.048;8.468;2022-09-29T02:49:24;112049.66;;;-142.21;100.00
10539;BME280;5317;49.048;8.468;2022-09-29T02:52:05;112049.66;;;-142.21;100.00
10539;BME280;5317;49.048;8.468;2022-09-29T02:54:56;112049.66;;;-142.21;100.00
10539;BME280;5317;49.048;8.468;2022-09-29T02:57:35;112049.66;;;-142.21;100.00
10539;BME280;5317;49.048;8.468;2022-09-29T03:00:13;112049.66;;;-142.21;100.00
10539;BME280;5317;49.048;8.468;2022-09-29T03:02:43;112049.66;;;-142.21;100.00
10539;BME280;5317;49.048;8.468;2022-09-29T03:05:13;112049.66;;;-142.21;100.00
10539;BME280;5317;49.048;8.468;2022-09-29T03:07:43;112049.66;;;-142.21;100.00
10539;BME280;5317;49.048;8.468;2022-09-29T03:10:12;112049.66;;;-142.21;100.00
10539;BME280;5317;49.048;8.468;2022-09-29T03:12:39;112049.66;;;-142.21;100.00
10539;BME280;5317;49.048;8.468;2022-09-29T03:15:10;112049.66;;;-142.21;100.00
10539;BME280;5317;49.048;8.468;2022-09-29T03:17:39;112049.66;;;-142.21;100.00
10539;BME280;5317;49.048;8.468;2022-09-29T03:20:07;112049.66;;;-142.21;100.00
10539;BME280;5317;49.048;8.468;2022-09-29T03:22:35;112049.66;;;-142.21;100.00
10539;BME280;5317;49.048;8.468;2022-09-29T03:25:05;112049.66;;;-142.21;100.00
10539;BME280;5317;49.048;8.468;2022-09-29T03:27:32;112049.66;;;-142.21;100.00
10539;BME280;5317;49.048;8.468;2022-09-29T03:30:01;112049.66;;;-142.21;100.00
10539;BME280;5317;49.048;8.468;2022-09-29T03:32:29;112049.66;;;-142.21;100.00
10539;BME280;5317;49.048;8.468;2022-09-29T03:34:56;112049.66;;;-142.21;100.00
10539;BME280;5317;49.048;8.468;2022-09-29T03:37:23;112049.66;;;-142.21;100.00
10539;BME280;5317;49.048;8.468;2022-09-29T03:39:50;112049.66;;;-142.21;100.00
10539;BME280;5317;49.048;8.468;2022-09-29T03:42:19;112049.66;;;-142.21;100.00
10539;BME280;5317;49.048;8.468;2022-09-29T03:44:48;112049.66;;;-142.21;100.00
10539;BME280;5317;49.048;8.468;2022-09-29T03:47:16;112049.66;;;-142.21;100.00
10539;BME280;5317;49.048;8.468;2022-09-29T03:49:48;112049.66;;;-142.21;100.00
10539;BME280;5317;49.048;8.468;2022-09-29T03:52:15;112049.66;;;-142.21;100.00
10539;BME280;5317;49.048;8.468;2022-09-29T03:54:43;112049.66;;;-142.21;100.00
10539;BME280;5317;49.048;8.468;2022-09-29T03:57:10;112049.66;;;-142.21;100.00
10539;BME280;5317;49.048;8.468;2022-09-29T03:59:39;112049.66;;;-142.21;100.00
10539;BME280;5317;49.048;8.468;2022-09-29T04:02:06;112049.66;;;-142.21;100.00
10539;BME280;5317;49.048;8.468;2022-09-29T04:04:33;112049.66;;;-142.21;100.00
10539;BME280;5317;49.048;8.468;2022-09-29T04:07:00;112049.66;;;-142.21;100.00
10539;BME280;5317;49.048;8.468;2022-09-29T04:09:27;112049.66;;;-142.21;100.00
10539;BME280;5317;49.048;8.468;2022-09-29T04:11:56;112049.66;;;-142.21;100.00
10539;BME280;5317;49.048;8.468;2022-09-29T04:14:23;112049.66;;;-142.21;100.00
10539;BME280;5317;49.048;8.468;2022-09-29T04:16:51;112049.66;;;-142.21;100.00
10539;BME280;5317;49.048;8.468;2022-09-29T04:19:18;112049.66;;;-142.21;100.00
10539;BME280;5317;49.048;8.468;2022-09-29T04:21:45;112049.66;;;-142.21;100.00
10539;BME280;5317;49.048;8.468;2022-09-29T04:24:13;112049.66;;;-142.21;100.00
10539;BME280;5317;49.048;8.468;2022-09-29T04:26:40;112049.66;;;-142.21;100.00
10539;BME280;5317;49.048;8.468;2022-09-29T04:29:07;112049.66;;;-142.21;100.00
10539;BME280;5317;49.048;8.468;2022-09-29T04:31:34;112049.66;;;-142.21;100.00
10539;BME280;5317;49.048;8.468;2022-09-29T04:34:03;112049.66;;;-142.21;100.00
10539;BME280;5317;49.048;8.468;2022-09-29T04:36:30;112049.66;;;-142.21;100.00
10539;BME280;5317;49.048;8.468;2022-09-29T04:38:57;112049.66;;;-142.21;100.00
10539;BME280;5317;49.048;8.468;2022-09-29T04:41:24;112049.66;;;-142.21;100.00
10539;BME280;5317;49.048;8.468;2022-09-29T04:43:51;112049.66;;;-142.21;100.00
10539;BME280;5317;49.048;8.468;2022-09-29T04:46:19;112049.66;;;-142.21;100.00
10539;BME280;5317;49.048;8.468;2022-09-29T04:48:46;112049.66;;;-142.21;100.00
10539;BME280;5317;49.048;8.468;2022-09-29T04:51:14;112049.66;;;-142.21;100.00
10539;BME280;5317;49.048;8.468;2022-09-29T04:53:41;112049.66;;;-142.21;100.00
10539;BME280;5317;49.048;8.468;2022-09-29T04:56:08;112049.66;;;-142.21;100.00
10539;BME280;5317;49.048;8.468;2022-09-29T04:58:36;112049.66;;;-142.21;100.00
10539;BME280;5317;49.048;8.468;2022-09-29T05:01:09;112049.66;;;-142.21;100.00
10539;BME280;5317;49.048;8.468;2022-09-29T05:03:37;112049.66;;;-142.21;100.00
10539;BME280;5317;49.048;8.468;2022-09-29T05:06:05;112049.66;;;-142.21;100.00
10539;BME280;5317;49.048;8.468;2022-09-29T05:08:35;112049.66;;;-142.21;100.00
10539;BME280;5317;49.048;8.468;2022-09-29T05:11:04;112049.66;;;-142.21;100.00
10539;BME280;5317;49.048;8.468;2022-09-29T05:13:32;112049.66;;;-142.21;100.00
10539;BME280;5317;49.048;8.468;2022-09-29T05:16:00;112049.66;;;-142.21;100.00
10539;BME280;5317;49.048;8.468;2022-09-29T05:18:28;112049.66;;;-142.21;100.00
10539;BME280;5317;49.048;8.468;2022-09-29T05:20:55;112049.66;;;-142.21;100.00
10539;BME280;5317;49.048;8.468;2022-09-29T05:23:28;112049.66;;;-142.21;100.00
10539;BME280;5317;49.048;8.468;2022-09-29T05:26:01;112049.66;;;-142.21;100.00
10539;BME280;5317;49.048;8.468;2022-09-29T05:28:28;112049.66;;;-142.21;100.00
10539;BME280;5317;49.048;8.468;2022-09-29T05:31:00;112049.66;;;-142.21;100.00
10539;BME280;5317;49.048;8.468;2022-09-29T05:33:28;112049.66;;;-142.21;100.00
10539;BME280;5317;49.048;8.468;2022-09-29T05:35:55;112049.66;;;-142.21;100.00
10539;BME280;5317;49.048;8.468;2022-09-29T05:38:23;112049.66;;;-142.21;100.00
10539;BME280;5317;49.048;8.468;2022-09-29T05:40:52;112049.66;;;-142.21;100.00
10539;BME280;5317;49.048;8.468;2022-09-29T05:43:20;112049.66;;;-142.21;100.00
10539;BME280;5317;49.048;8.468;2022-09-29T05:45:47;112049.66;;;-142.21;100.00
10539;BME280;5317;49.048;8.468;2022-09-29T05:48:14;112049.66;;;-142.21;100.00
10539;BME280;5317;49.048;8.468;2022-09-29T05:50:42;112049.66;;;-142.21;100.00
10539;BME280;5317;49.048;8.468;2022-09-29T05:53:10;112049.66;;;-142.21;100.00
10539;BME280;5317;49.048;8.468;2022-09-29T05:55:38;112049.66;;;-142.21;100.00
10539;BME280;5317;49.048;8.468;2022-09-29T05:58:05;112049.66;;;-142.21;100.00
10539;BME280;5317;49.048;8.468;2022-09-29T06:00:34;112049.66;;;-142.21;100.00
10539;BME280;5317;49.048;8.468;2022-09-29T06:03:01;112049.66;;;-142.21;100.00
10539;BME280;5317;49.048;8.468;2022-09-29T06:05:28;112049.66;;;-142.21;100.00
10539;BME280;5317;49.048;8.468;2022-09-29T06:07:56;112049.66;;;-142.21;100.00
10539;BME280;5317;49.048;8.468;2022-09-29T06:10:23;112049.66;;;-142.21;100.00
10539;BME280;5317;49.048;8.468;2022-09-29T06:12:51;112049.66;;;-142.21;100.00
10539;BME280;5317;49.048;8.468;2022-09-29T06:15:18;112049.66;;;-142.21;100.00
10539;BME280;5317;49.048;8.468;2022-09-29T06:17:46;112049.66;;;-142.21;100.00
10539;BME280;5317;49.048;8.468;2022-09-29T06:20:14;112049.66;;;-142.21;100.00
10539;BME280;5317;49.048;8.468;2022-09-29T06:22:42;112049.66;;;-142.21;100.00
10539;BME280;5317;49.048;8.468;2022-09-29T06:25:09;112049.66;;;-142.21;100.00
10539;BME280;5317;49.048;8.468;2022-09-29T06:27:36;112049.66;;;-142.21;100.00
10539;BME280;5317;49.048;8.468;2022-09-29T06:30:05;112049.66;;;-142.21;100.00
10539;BME280;5317;49.048;8.468;2022-09-29T06:32:33;112049.66;;;-142.21;100.00
10539;BME280;5317;49.048;8.468;2022-09-29T06:35:02;112049.66;;;-142.21;100.00
10539;BME280;5317;49.048;8.468;2022-09-29T06:37:55;112049.66;;;-142.21;100.00
10539;BME280;5317;49.048;8.468;2022-09-29T06:40:22;112049.66;;;-142.21;100.00
10539;BME280;5317;49.048;8.468;2022-09-29T06:42:51;112049.66;;;-142.21;100.00
10539;BME280;5317;49.048;8.468;2022-09-29T06:45:19;112049.66;;;-142.21;100.00
10539;BME280;5317;49.048;8.468;2022-09-29T06:47:46;112049.66;;;-142.21;100.00
10539;BME280;5317;49.048;8.468;2022-09-29T06:50:14;112049.66;;;-142.21;100.00
10539;BME280;5317;49.048;8.468;2022-09-29T06:52:41;112049.66;;;-142.21;100.00
10539;BME280;5317;49.048;8.468;2022-09-29T06:55:09;112049.66;;;-142.21;100.00
10539;BME280;5317;49.048;8.468;2022-09-29T06:57:36;112049.66;;;-142.21;100.00
10539;BME280;5317;49.048;8.468;2022-09-29T07:00:07;112049.66;;;-142.21;100.00
10539;BME280;5317;49.048;8.468;2022-09-29T07:02:34;112049.66;;;-142.21;100.00
10539;BME280;5317;49.048;8.468;2022-09-29T07:05:01;112049.66;;;-142.21;100.00
10539;BME280;5317;49.048;8.468;2022-09-29T07:07:30;112049.66;;;-142.21;100.00
10539;BME280;5317;49.048;8.468;2022-09-29T07:09:57;112049.66;;;-142.21;100.00
10539;BME280;5317;49.048;8.468;2022-09-29T07:12:24;112049.66;;;-142.21;100.00
10539;BME280;5317;49.048;8.468;2022-09-29T07:14:51;112049.66;;;-142.21;100.00
10539;BME280;5317;49.048;8.468;2022-09-29T07:17:18;112049.66;;;-142.21;100.00
10539;BME280;5317;49.048;8.468;2022-09-29T07:19:45;112049.66;;;-142.21;100.00
10539;BME280;5317;49.048;8.468;2022-09-29T07:22:13;112049.66;;;-142.21;100.00
10539;BME280;5317;49.048;8.468;2022-09-29T07:24:41;112049.66;;;-142.21;100.00
10539;BME280;5317;49.048;8.468;2022-09-29T07:27:08;112049.66;;;-142.21;100.00
10539;BME280;5317;49.048;8.468;2022-09-29T07:29:36;112049.66;;;-142.21;100.00
10539;BME280;5317;49.048;8.468;2022-09-29T07:32:03;112049.66;;;-142.21;100.00
10539;BME280;5317;49.048;8.468;2022-09-29T07:34:30;112049.66;;;-142.21;100.00
10539;BME280;5317;49.048;8.468;2022-09-29T07:36:57;112049.66;;;-142.21;100.00
10539;BME280;5317;49.048;8.468;2022-09-29T07:39:24;112049.66;;;-142.21;100.00
10539;BME280;5317;49.048;8.468;2022-09-29T07:41:52;112049.66;;;-142.21;100.00
10539;BME280;5317;49.048;8.468;2022-09-29T07:44:21;112049.66;;;-142.21;100.00
10539;BME280;5317;49.048;8.468;2022-09-29T07:46:48;112049.66;;;-142.21;100.00
10539;BME280;5317;49.048;8.468;2022-09-29T07:49:16;112049.66;;;-142.21;100.00
10539;BME280;5317;49.048;8.468;2022-09-29T07:51:43;112049.66;;;-142.21;100.00
10539;BME280;5317;49.048;8.468;2022-09-29T07:54:10;112049.66;;;-142.21;100.00
10539;BME280;5317;49.048;8.468;2022-09-29T07:56:38;112049.66;;;-142.21;100.00
10539;BME280;5317;49.048;8.468;2022-09-29T07:59:09;112049.66;;;-142.21;100.00
10539;BME280;5317;49.048;8.468;2022-09-29T08:01:36;112049.66;;;-142.21;100.00
10539;BME280;5317;49.048;8.468;2022-09-29T08:04:06;112049.66;;;-142.21;100.00
10539;BME280;5317;49.048;8.468;2022-09-29T08:06:34;112049.66;;;-142.21;100.00
10539;BME280;5317;49.048;8.468;2022-09-29T08:09:02;112049.66;;;-142.21;100.00
10539;BME280;5317;49.048;8.468;2022-09-29T08:11:31;112049.66;;;-142.21;100.00
10539;BME280;5317;49.048;8.468;2022-09-29T08:14:00;112049.66;;;-142.21;100.00
10539;BME280;5317;49.048;8.468;2022-09-29T08:16:29;112049.66;;;-142.21;100.00
10539;BME280;5317;49.048;8.468;2022-09-29T08:18:57;112049.66;;;-142.21;100.00
10539;BME280;5317;49.048;8.468;2022-09-29T08:21:25;112049.66;;;-142.21;100.00
10539;BME280;5317;49.048;8.468;2022-09-29T08:23:53;112049.66;;;-142.21;100.00
10539;BME280;5317;49.048;8.468;2022-09-29T08:26:22;112049.66;;;-142.21;100.00
10539;BME280;5317;49.048;8.468;2022-09-29T08:28:49;112049.66;;;-142.21;100.00
10539;BME280;5317;49.048;8.468;2022-09-29T08:31:19;112049.66;;;-142.21;100.00
10539;BME280;5317;49.048;8.468;2022-09-29T08:33:50;112049.66;;;-142.21;100.00
10539;BME280;5317;49.048;8.468;2022-09-29T08:36:19;112049.66;;;-142.21;100.00
10539;BME280;5317;49.048;8.468;2022-09-29T08:38:48;112049.66;;;-142.21;100.00
10539;BME280;5317;49.048;8.468;2022-09-29T08:41:48;112049.66;;;-142.21;100.00
10539;BME280;5317;49.048;8.468;2022-09-29T08:44:24;112049.66;;;-142.21;100.00
10539;BME280;5317;49.048;8.468;2022-09-29T08:47:00;112049.66;;;-142.21;100.00
10539;BME280;5317;49.048;8.468;2022-09-29T08:49:35;112049.66;;;-142.21;100.00
10539;BME280;5317;49.048;8.468;2022-09-29T08:52:10;112049.66;;;-142.21;100.00
10539;BME280;5317;49.048;8.468;2022-09-29T08:54:42;112049.66;;;-142.21;100.00
10539;BME280;5317;49.048;8.468;2022-09-29T08:57:14;112049.66;;;-142.21;99.85
10539;BME280;5317;49.048;8.468;2022-09-29T08:59:51;112049.66;;;-142.21;100.00
10539;BME280;5317;49.048;8.468;2022-09-29T09:02:57;112049.66;;;-142.21;99.49
10539;BME280;5317;49.048;8.468;2022-09-29T09:05:48;112049.66;;;-142.21;98.65
10539;BME280;5317;49.048;8.468;2022-09-29T09:08:46;112049.66;;;-142.21;97.39
10539;BME280;5317;49.048;8.468;2022-09-29T09:11:35;112049.66;;;-142.21;96.58
10539;BME280;5317;49.048;8.468;2022-09-29T09:14:22;112049.66;;;-142.21;95.71
10539;BME280;5317;49.048;8.468;2022-09-29T09:17:10;112049.66;;;-142.21;96.29
10539;BME280;5317;49.048;8.468;2022-09-29T09:20:13;112049.66;;;-142.21;96.55
10539;BME280;5317;49.048;8.468;2022-09-29T09:22:55;112049.66;;;-142.21;95.74
10539;BME280;5317;49.048;8.468;2022-09-29T09:25:30;112049.66;;;-142.21;96.72
10539;BME280;5317;49.048;8.468;2022-09-29T09:28:10;112049.66;;;-142.21;96.27
10539;BME280;5317;49.048;8.468;2022-09-29T09:30:46;112049.66;;;-142.21;96.82
10539;BME280;5317;49.048;8.468;2022-09-29T09:33:28;112049.66;;;-142.21;96.98
10539;BME280;5317;49.048;8.468;2022-09-29T09:36:02;112049.66;;;-142.21;91.85
10539;BME280;5317;49.048;8.468;2022-09-29T09:38:50;112049.66;;;-142.21;94.93
10539;BME280;5317;49.048;8.468;2022-09-29T09:41:23;112049.66;;;-142.21;94.57
10539;BME280;5317;49.048;8.468;2022-09-29T09:43:56;112049.66;;;-142.21;94.61
10539;BME280;5317;49.048;8.468;2022-09-29T09:46:29;112049.66;;;-142.21;93.81
10539;BME280;5317;49.048;8.468;2022-09-29T09:49:04;112049.66;;;-142.21;94.06
10539;BME280;5317;49.048;8.468;2022-09-29T09:51:45;112049.66;;;-142.21;94.14
10539;BME280;5317;49.048;8.468;2022-09-29T09:54:28;112049.66;;;-142.21;94.59
10539;BME280;5317;49.048;8.468;2022-09-29T10:00:36;112049.66;;;-142.21;89.62
10539;BME280;5317;49.048;8.468;2022-09-29T10:03:07;112049.66;;;-142.21;92.10
10539;BME280;5317;49.048;8.468;2022-09-29T10:05:38;112049.66;;;-142.21;90.38
10539;BME280;5317;49.048;8.468;2022-09-29T10:08:14;112049.66;;;-142.21;89.22
10539;BME280;5317;49.048;8.468;2022-09-29T10:10:46;112049.66;;;-142.21;89.73
10539;BME280;5317;49.048;8.468;2022-09-29T10:13:17;112049.66;;;-142.21;87.92
10539;BME280;5317;49.048;8.468;2022-09-29T10:15:52;112049.66;;;-142.21;85.13
10539;BME280;5317;49.048;8.468;2022-09-29T10:18:27;112049.66;;;-142.21;85.23
10539;BME280;5317;49.048;8.468;2022-09-29T10:20:55;112049.66;;;-142.21;83.92
10539;BME280;5317;49.048;8.468;2022-09-29T10:23:29;112049.66;;;-142.21;84.76
10539;BME280;5317;49.048;8.468;2022-09-29T10:26:08;112049.66;;;-142.21;83.48
10539;BME280;5317;49.048;8.468;2022-09-29T10:28:46;112049.66;;;-142.21;77.58
10539;BME280;5317;49.048;8.468;2022-09-29T10:31:20;112049.66;;;-142.21;77.19
10539;BME280;5317;49.048;8.468;2022-09-29T10:33:53;112049.66;;;-142.21;79.26
10539;BME280;5317;49.048;8.468;2022-09-29T10:36:22;112049.66;;;-142.21;79.08
10539;BME280;5317;49.048;8.468;2022-09-29T10:38:51;112049.66;;;-142.21;79.13
10539;BME280;5317;49.048;8.468;2022-09-29T10:41:20;112049.66;;;-142.21;80.94
10539;BME280;5317;49.048;8.468;2022-09-29T10:43:48;112049.66;;;-142.21;84.41
10539;BME280;5317;49.048;8.468;2022-09-29T10:46:50;112049.66;;;-142.21;83.80
10539;BME280;5317;49.048;8.468;2022-09-29T10:49:20;112049.66;;;-142.21;80.62
10539;BME280;5317;49.048;8.468;2022-09-29T10:51:56;112049.66;;;-142.21;81.20
10539;BME280;5317;49.048;8.468;2022-09-29T10:54:25;112049.66;;;-142.21;81.66
10539;BME280;5317;49.048;8.468;2022-09-29T10:56:56;112049.66;;;-142.21;83.71
10539;BME280;5317;49.048;8.468;2022-09-29T10:59:25;112049.66;;;-142.21;83.10
10539;BME280;5317;49.048;8.468;2022-09-29T11:01:58;112049.66;;;-142.21;84.45
10539;BME280;5317;49.048;8.468;2022-09-29T11:04:31;112049.66;;;-142.21;84.80
10539;BME280;5317;49.048;8.468;2022-09-29T11:07:08;112049.66;;;-142.21;85.38
10539;BME280;5317;49.048;8.468;2022-09-29T11:09:39;112049.66;;;-142.21;85.40
10539;BME280;5317;49.048;8.468;2022-09-29T11:12:27;112049.66;;;-142.21;84.40
10539;BME280;5317;49.048;8.468;2022-09-29T11:14:57;112049.66;;;-142.21;85.19
10539;BME280;5317;49.048;8.468;2022-09-29T11:17:27;112049.66;;;-142.21;84.82
10539;BME280;5317;49.048;8.468;2022-09-29T11:19:57;112049.66;;;-142.21;82.94
10539;BME280;5317;49.048;8.468;2022-09-29T11:23:21;112049.66;;;-142.21;84.27
10539;BME280;5317;49.048;8.468;2022-09-29T11:26:17;112049.66;;;-142.21;83.41
10539;BME280;5317;49.048;8.468;2022-09-29T11:29:06;112049.66;;;-142.21;83.15
10539;BME280;5317;49.048;8.468;2022-09-29T11:31:49;112049.66;;;-142.21;83.26
10539;BME280;5317;49.048;8.468;2022-09-29T11:34:47;112049.66;;;-142.21;82.70
10539;BME280;5317;49.048;8.468;2022-09-29T11:37:31;112049.66;;;-142.21;83.15
10539;BME280;5317;49.048;8.468;2022-09-29T11:40:10;112049.66;;;-142.21;83.53
10539;BME280;5317;49.048;8.468;2022-09-29T11:43:14;112049.66;;;-142.21;83.70
10539;BME280;5317;49.048;8.468;2022-09-29T11:45:59;112049.66;;;-142.21;83.38
10539;BME280;5317;49.048;8.468;2022-09-29T11:52:02;112049.66;;;-142.21;84.74
10539;BME280;5317;49.048;8.468;2022-09-29T11:54:58;112049.66;;;-142.21;84.80
10539;BME280;5317;49.048;8.468;2022-09-29T11:57:45;112049.66;;;-142.21;84.33
10539;BME280;5317;49.048;8.468;2022-09-29T12:00:17;112049.66;;;-142.21;84.71
10539;BME280;5317;49.048;8.468;2022-09-29T12:03:26;112049.66;;;-142.21;83.58
10539;BME280;5317;49.048;8.468;2022-09-29T12:06:34;112049.66;;;-142.21;84.64
10539;BME280;5317;49.048;8.468;2022-09-29T12:09:28;112049.66;;;-142.21;84.03
10539;BME280;5317;49.048;8.468;2022-09-29T12:12:07;112049.66;;;-142.21;83.54
10539;BME280;5317;49.048;8.468;2022-09-29T12:15:06;112049.66;;;-142.21;83.73
10539;BME280;5317;49.048;8.468;2022-09-29T12:17:44;112049.66;;;-142.21;83.20
10539;BME280;5317;49.048;8.468;2022-09-29T12:20:19;112049.66;;;-142.21;83.68
10539;BME280;5317;49.048;8.468;2022-09-29T12:22:51;112049.66;;;-142.21;84.59
10539;BME280;5317;49.048;8.468;2022-09-29T12:25:24;112049.66;;;-142.21;84.71
10539;BME280;5317;49.048;8.468;2022-09-29T12:27:57;112049.66;;;-142.21;85.07
10539;BME280;5317;49.048;8.468;2022-09-29T12:30:32;112049.66;;;-142.21;85.56
10539;BME280;5317;49.048;8.468;2022-09-29T12:33:12;112049.66;;;-142.21;86.23
10539;BME280;5317;49.048;8.468;2022-09-29T12:35:51;112049.66;;;-142.21;84.65
10539;BME280;5317;49.048;8.468;2022-09-29T12:38:29;112049.66;;;-142.21;81.54
10539;BME280;5317;49.048;8.468;2022-09-29T12:41:09;112049.66;;;-142.21;82.30
10539;BME280;5317;49.048;8.468;2022-09-29T12:43:47;112049.66;;;-142.21;79.51
10539;BME280;5317;49.048;8.468;2022-09-29T12:46:22;112049.66;;;-142.21;80.46
10539;BME280;5317;49.048;8.468;2022-09-29T12:49:00;112049.66;;;-142.21;77.18
10539;BME280;5317;49.048;8.468;2022-09-29T12:51:39;112049.66;;;-142.21;77.78
10539;BME280;5317;49.048;8.468;2022-09-29T12:54:17;112049.66;;;-142.21;78.46
10539;BME280;5317;49.048;8.468;2022-09-29T12:56:54;112049.66;;;-142.21;79.48
10539;BME280;5317;49.048;8.468;2022-09-29T12:59:34;112049.66;;;-142.21;79.09
10539;BME280;5317;49.048;8.468;2022-09-29T13:02:36;112049.66;;;-142.21;79.15
10539;BME280;5317;49.048;8.468;2022-09-29T13:05:44;112049.66;;;-142.21;76.51
10539;BME280;5317;49.048;8.468;2022-09-29T13:08:33;112049.66;;;-142.21;74.70
10539;BME280;5317;49.048;8.468;2022-09-29T13:11:29;112049.66;;;-142.21;78.12
10539;BME280;5317;49.048;8.468;2022-09-29T13:15:07;112049.66;;;-142.21;77.98
10539;BME280;5317;49.048;8.468;2022-09-29T13:18:10;112049.66;;;-142.21;75.91